Time;durP1;ratioP1;P1;durP2;ratioP2;P2;SDS_P1;SDS_P2;PMS_P1;PMS_P2;Temp;Humidity;BMP_temperature;BMP_pressure;BME280_temperature;BME280_humidity;BME280_pressure;Samples;Min_cycle;Max_cycle;Signal;HPM_P1;HPM_P2
2022/08/25 00:02:02;;;;;;;18.73;8.43;;;;;;;19.11;100.00;100447.81;5551474;32;34335;-70
2022/08/25 00:05:06;;;;;;;15.02;8.85;;;;;;;19.10;100.00;100449.69;5551122;32;34258;-69
2022/08/25 00:08:11;;;;;;;17.25;8.68;;;;;;;19.10;100.00;100454.25;5536874;32;33556;-69
2022/08/25 00:11:20;;;;;;;15.63;8.25;;;;;;;19.18;100.00;100448.56;5537901;32;34243;-69
2022/08/25 00:14:27;;;;;;;14.90;8.73;;;;;;;19.22;100.00;100452.44;5551154;32;34300;-69
2022/08/25 00:17:30;;;;;;;16.73;7.85;;;;;;;19.21;100.00;100450.84;5550943;32;34269;-69
2022/08/25 00:20:32;;;;;;;17.17;8.52;;;;;;;19.21;100.00;100450.84;5550987;32;34280;-69
2022/08/25 00:23:35;;;;;;;19.83;8.32;;;;;;;19.18;100.00;100448.56;5550951;32;34884;-69
2022/08/25 00:26:41;;;;;;;15.82;8.23;;;;;;;19.21;100.00;100445.44;5550967;32;34185;-69
2022/08/25 00:29:44;;;;;;;15.63;7.43;;;;;;;19.18;100.00;100439.66;5550989;32;34888;-69
2022/08/25 00:32:47;;;;;;;16.33;8.32;;;;;;;19.10;100.00;100443.47;5550958;32;34290;-69
2022/08/25 00:35:59;;;;;;;15.10;8.15;;;;;;;19.15;100.00;100440.13;5550870;32;34535;-69
2022/08/25 00:39:03;;;;;;;10.90;7.18;;;;;;;19.09;100.00;100436.44;5550870;32;34936;-69
2022/08/25 00:42:08;;;;;;;14.38;8.05;;;;;;;19.16;100.00;100428.34;5550879;32;34272;-72
2022/08/25 00:45:17;;;;;;;15.15;8.45;;;;;;;19.15;100.00;100429.38;5550825;32;34840;-69
2022/08/25 00:48:20;;;;;;;13.98;7.60;;;;;;;19.07;100.00;100435.88;5537046;32;33422;-69
2022/08/25 00:51:37;;;;;;;12.63;7.68;;;;;;;19.02;100.00;100441.91;5550901;32;34156;-69
2022/08/25 00:54:45;;;;;;;13.85;7.90;;;;;;;19.03;100.00;100442.72;5550687;32;34310;-70
2022/08/25 00:57:59;;;;;;;13.18;7.43;;;;;;;18.95;100.00;100443.00;5550586;32;34758;-70
2022/08/25 01:01:02;;;;;;;14.40;7.47;;;;;;;18.91;100.00;100439.12;5550826;32;34167;-70
2022/08/25 01:04:06;;;;;;;15.07;8.07;;;;;;;18.85;100.00;100437.28;5551024;32;34720;-69
2022/08/25 01:07:10;;;;;;;13.85;7.57;;;;;;;18.83;100.00;100431.34;5550658;32;34800;-70
2022/08/25 01:10:21;;;;;;;12.98;7.95;;;;;;;18.80;100.00;100437.13;5537705;32;34211;-70
2022/08/25 01:13:40;;;;;;;14.52;7.82;;;;;;;18.72;100.00;100434.72;5550568;32;34802;-70
2022/08/25 01:16:43;;;;;;;18.15;7.68;;;;;;;18.69;100.00;100435.19;5536841;32;32686;-71
2022/08/25 01:19:46;;;;;;;20.67;7.95;;;;;;;18.75;100.00;100431.59;5535862;32;34953;-70
2022/08/25 01:22:50;;;;;;;15.63;7.57;;;;;;;18.76;100.00;100431.38;5537021;32;34219;-70
2022/08/25 01:26:08;;;;;;;17.05;7.43;;;;;;;18.72;100.00;100434.72;5550536;32;34409;-70
2022/08/25 01:29:20;;;;;;;13.77;7.78;;;;;;;18.76;100.00;100430.56;5536890;32;32549;-70
2022/08/25 01:32:23;;;;;;;15.15;7.20;;;;;;;18.67;100.00;100433.53;5550394;32;34199;-70
2022/08/25 01:35:26;;;;;;;17.85;7.80;;;;;;;18.55;100.00;100431.75;5550385;32;34131;-70
2022/08/25 01:38:28;;;;;;;15.15;7.53;;;;;;;18.50;100.00;100427.00;5550307;32;34830;-70
2022/08/25 01:42:04;;;;;;;15.10;8.00;;;;;;;18.46;100.00;100422.28;5550341;32;34164;-71
2022/08/25 01:45:09;;;;;;;14.73;7.70;;;;;;;18.58;100.00;100423.28;5471563;32;32654;-70
2022/08/25 01:48:13;;;;;;;13.13;7.45;;;;;;;18.58;100.00;100423.28;5550394;32;34233;-70
2022/08/25 01:51:19;;;;;;;12.85;7.12;;;;;;;18.54;100.00;100427.44;5550270;32;34212;-70
2022/08/25 01:54:22;;;;;;;15.85;8.00;;;;;;;18.51;100.00;100427.81;5550156;32;34232;-70
2022/08/25 01:57:25;;;;;;;15.52;7.25;;;;;;;18.46;100.00;100433.84;5550514;32;34864;-70
2022/08/25 02:00:27;;;;;;;15.23;7.45;;;;;;;18.40;100.00;100428.53;5550505;32;34658;-70
2022/08/25 02:03:31;;;;;;;11.35;6.68;;;;;;;18.41;100.00;100424.81;5550118;32;34243;-70
2022/08/25 02:06:34;;;;;;;17.02;7.12;;;;;;;18.39;100.00;100427.72;5550032;32;34830;-70
2022/08/25 02:09:37;;;;;;;15.00;7.50;;;;;;;18.31;100.00;100422.59;5550013;32;34910;-70
2022/08/25 02:12:40;;;;;;;16.75;7.60;;;;;;;18.28;100.00;100432.97;5549893;32;34299;-70
2022/08/25 02:15:48;;;;;;;15.63;7.20;;;;;;;18.26;100.00;100419.72;5536220;32;33108;-70
2022/08/25 02:18:51;;;;;;;12.57;7.05;;;;;;;18.28;100.00;100417.66;5550246;32;34154;-70
2022/08/25 02:21:54;;;;;;;15.43;7.72;;;;;;;18.29;100.00;100429.25;5549922;32;34246;-70
2022/08/25 02:24:58;;;;;;;11.80;7.00;;;;;;;18.27;100.00;100432.12;5549905;32;34951;-70
2022/08/25 02:28:00;;;;;;;9.65;6.43;;;;;;;18.26;100.00;100425.09;5549870;32;34675;-70
2022/08/25 02:31:04;;;;;;;16.05;6.78;;;;;;;18.23;100.00;100423.69;5549656;32;35589;-69
2022/08/25 02:34:08;;;;;;;13.43;6.90;;;;;;;18.20;100.00;100423.31;5549633;32;34261;-69
2022/08/25 02:37:11;;;;;;;17.48;7.65;;;;;;;18.22;100.00;100423.91;5549419;32;34193;-70
2022/08/25 02:40:14;;;;;;;15.15;7.35;;;;;;;18.21;100.00;100419.56;5536027;32;34243;-70
2022/08/25 02:43:17;;;;;;;13.35;6.75;;;;;;;18.17;100.00;100423.72;5549860;32;34898;-70
2022/08/25 02:46:21;;;;;;;16.10;6.87;;;;;;;18.13;100.00;100417.97;5549750;32;34592;-70
2022/08/25 02:49:23;;;;;;;12.52;6.82;;;;;;;18.08;100.00;100414.28;5536223;32;34242;-70
2022/08/25 02:52:26;;;;;;;14.27;6.80;;;;;;;18.05;100.00;100412.03;5549307;32;34930;-70
2022/08/25 02:55:29;;;;;;;16.33;7.20;;;;;;;18.15;100.00;100418.56;5535641;32;34851;-70
2022/08/25 02:58:37;;;;;;;13.73;7.12;;;;;;;18.17;100.00;100426.41;5549572;32;34440;-70
2022/08/25 03:01:40;;;;;;;14.10;7.32;;;;;;;18.25;100.00;100415.41;5549435;32;34202;-69
2022/08/25 03:04:43;;;;;;;14.75;7.22;;;;;;;18.29;100.00;100416.63;5549169;32;34137;-70
2022/08/25 03:07:45;;;;;;;17.98;7.70;;;;;;;18.28;100.00;100414.16;5535684;32;32705;-70
2022/08/25 03:10:49;;;;;;;17.80;7.40;;;;;;;18.24;100.00;100411.09;5548917;32;34842;-70
2022/08/25 03:13:55;;;;;;;13.52;8.15;;;;;;;18.20;100.00;100417.94;5548936;32;34949;-70
2022/08/25 03:16:57;;;;;;;16.98;8.25;;;;;;;18.20;100.00;100409.87;5548750;32;34606;-70
2022/08/25 03:20:00;;;;;;;16.15;7.65;;;;;;;18.34;100.00;100410.59;5549217;32;34633;-70
2022/08/25 03:23:04;;;;;;;14.45;8.68;;;;;;;18.18;100.00;100414.62;5548811;32;34322;-70
2022/08/25 03:29:32;;;;;;;15.85;8.18;;;;;;;18.11;100.00;100411.97;5548901;32;34848;-70
2022/08/25 03:32:36;;;;;;;19.12;8.77;;;;;;;18.10;100.00;100401.47;5535413;32;34831;-70
2022/08/25 03:35:39;;;;;;;14.60;8.70;;;;;;;18.16;100.00;100416.69;5534986;32;34258;-70
2022/08/25 03:38:42;;;;;;;12.77;7.62;;;;;;;18.10;100.00;100415.72;5534344;32;33091;-70
2022/08/25 03:41:46;;;;;;;14.25;7.97;;;;;;;18.03;100.00;100414.94;5548867;32;34595;-70
2022/08/25 03:44:48;;;;;;;17.92;7.90;;;;;;;18.03;100.00;100416.78;5551345;32;34253;-70
2022/08/25 03:47:52;;;;;;;20.95;7.47;;;;;;;18.05;100.00;100409.34;5551364;32;33724;-70
2022/08/25 03:50:55;;;;;;;17.65;8.32;;;;;;;17.99;100.00;100411.03;5551282;32;34872;-70
2022/08/25 03:53:59;;;;;;;16.12;7.93;;;;;;;18.06;100.00;100410.97;5551591;32;34169;-70
2022/08/25 03:57:02;;;;;;;13.95;7.62;;;;;;;18.06;100.00;100410.97;5551215;32;34204;-70
2022/08/25 04:00:08;;;;;;;14.95;8.20;;;;;;;18.05;100.00;100420.09;5551656;32;34385;-70
2022/08/25 04:03:12;;;;;;;17.05;8.18;;;;;;;18.16;100.00;100414.00;5551191;32;35453;-70
2022/08/25 04:06:17;;;;;;;15.15;8.30;;;;;;;18.15;100.00;100415.06;5551096;32;34426;-70
2022/08/25 04:09:20;;;;;;;13.90;8.13;;;;;;;18.19;100.00;100419.78;5551110;32;34168;-70
2022/08/25 04:12:23;;;;;;;17.52;9.40;;;;;;;18.26;100.00;100425.09;5551014;32;34167;-70
2022/08/25 04:15:26;;;;;;;22.45;9.05;;;;;;;18.28;100.00;100420.34;5551140;32;34182;-70
2022/08/25 04:18:33;;;;;;;18.02;8.70;;;;;;;18.28;100.00;100423.03;5537079;32;32660;-70
2022/08/25 04:21:37;;;;;;;17.08;9.82;;;;;;;18.28;100.00;100416.84;5551018;32;34965;-70
2022/08/25 04:24:40;;;;;;;17.73;8.98;;;;;;;18.32;100.00;100426.94;5551304;32;34977;-70
2022/08/25 04:27:43;;;;;;;21.45;9.32;;;;;;;18.38;100.00;100422.56;5537441;32;34884;-70
2022/08/25 04:30:45;;;;;;;13.43;8.63;;;;;;;18.42;100.00;100421.91;5551010;32;34640;-70
2022/08/25 04:33:53;;;;;;;20.17;9.23;;;;;;;18.43;100.00;100423.56;5550822;32;34251;-70
2022/08/25 04:36:59;;;;;;;18.23;8.77;;;;;;;18.50;100.00;100424.31;5550610;32;34736;-69
2022/08/25 04:40:02;;;;;;;20.40;9.50;;;;;;;18.61;100.00;100418.28;5550896;32;34331;-70
2022/08/25 04:43:05;;;;;;;13.68;8.13;;;;;;;18.69;100.00;100419.06;5537364;32;32785;-70
2022/08/25 04:46:11;;;;;;;13.10;7.87;;;;;;;18.74;100.00;100411.94;5550845;32;34194;-70
2022/08/25 04:49:14;;;;;;;14.50;7.43;;;;;;;18.80;100.00;100416.47;5550852;32;34267;-70
2022/08/25 04:52:16;;;;;;;18.30;6.97;;;;;;;18.85;100.00;100411.25;5550600;32;34546;-70
2022/08/25 04:55:19;;;;;;;13.65;7.10;;;;;;;18.95;100.00;100413.44;5550962;32;34896;-70
2022/08/25 04:58:22;;;;;;;16.65;7.07;;;;;;;19.06;100.00;100415.41;5536444;32;33319;-70
2022/08/25 05:01:25;;;;;;;17.23;6.65;;;;;;;19.15;100.00;100424.00;5550797;32;34782;-70
2022/08/25 05:04:28;;;;;;;13.70;7.07;;;;;;;19.26;100.00;100418.72;5550863;32;34990;-71
2022/08/25 05:07:31;;;;;;;17.92;7.53;;;;;;;19.27;100.00;100423.00;5550613;32;34602;-70
2022/08/25 05:10:38;;;;;;;13.55;7.00;;;;;;;19.34;100.00;100421.09;5550199;32;34672;-71
2022/08/25 05:13:42;;;;;;;18.30;7.60;;;;;;;19.40;100.00;100420.22;5550294;32;34258;-71
2022/08/25 05:16:48;;;;;;;15.95;7.55;;;;;;;19.53;100.00;100419.25;5550402;32;34303;-71
2022/08/25 05:19:51;;;;;;;17.83;7.07;;;;;;;19.55;100.00;100413.66;5550338;32;34862;-71
2022/08/25 05:22:53;;;;;;;14.75;7.65;;;;;;;19.58;100.00;100413.19;5537124;32;34837;-70
2022/08/25 05:26:02;;;;;;;15.20;7.43;;;;;;;19.70;100.00;100417.59;5550266;32;34699;-70
2022/08/25 05:29:05;;;;;;;11.35;6.75;;;;;;;19.82;100.00;100417.66;5550776;32;34289;-69
2022/08/25 05:32:08;;;;;;;11.35;6.80;;;;;;;19.94;100.00;100410.47;5550282;32;34372;-72
2022/08/25 05:35:11;;;;;;;15.23;7.03;;;;;;;20.00;100.00;100409.53;5550086;32;34932;-71
2022/08/25 05:38:14;;;;;;;14.23;7.25;;;;;;;20.12;100.00;100409.56;5550096;32;34930;-70
2022/08/25 05:41:25;;;;;;;17.55;7.05;;;;;;;20.26;100.00;100414.53;5550062;32;34427;-71
2022/08/25 05:44:28;;;;;;;11.90;6.87;;;;;;;20.43;100.00;100416.63;5536569;32;33797;-70
2022/08/25 05:47:32;;;;;;;13.98;6.82;;;;;;;20.56;100.00;100416.41;5550016;32;34258;-70
2022/08/25 05:50:35;;;;;;;17.90;6.35;;;;;;;20.66;100.00;100411.25;5549579;32;34261;-70
2022/08/25 05:53:41;;;;;;;14.68;6.40;;;;;;;20.79;100.00;100411.03;5549748;32;34138;-70
2022/08/25 05:56:44;;;;;;;19.08;6.57;;;;;;;20.94;100.00;100407.88;5549936;32;34508;-71
2022/08/25 05:59:46;;;;;;;14.77;6.70;;;;;;;21.03;100.00;100414.53;5549439;32;34948;-70
2022/08/25 06:02:49;;;;;;;14.80;6.30;;;;;;;21.17;100.00;100405.19;5535973;32;34427;-70
2022/08/25 06:05:52;;;;;;;15.35;5.90;;;;;;;21.10;100.00;100404.47;5535425;32;32666;-71
2022/08/25 06:08:55;;;;;;;18.23;6.65;;;;;;;21.22;100.00;100410.69;5536333;32;32824;-70
2022/08/25 06:11:58;;;;;;;10.30;5.62;;;;;;;21.35;100.00;100407.72;5549387;32;34441;-71
2022/08/25 06:15:02;;;;;;;12.02;5.80;;;;;;;21.55;100.00;100418.97;5549749;32;34221;-70
2022/08/25 06:18:06;;;;;;;19.98;5.97;;;;;;;21.75;100.00;100412.31;5549763;32;34906;-70
2022/08/25 06:21:11;;;;;;;13.73;5.95;;;;;;;21.82;100.00;100413.84;5549370;32;34366;-70
2022/08/25 06:24:14;;;;;;;19.20;5.90;;;;;;;21.85;100.00;100418.75;5549312;32;34908;-70
2022/08/25 06:27:17;;;;;;;11.85;5.22;;;;;;;21.88;100.00;100420.97;5536001;32;32794;-71
2022/08/25 06:30:23;;;;;;;12.32;5.05;;;;;;;22.12;100.00;100423.63;5549562;32;34970;-70
2022/08/25 06:33:31;;;;;;;18.92;5.78;;;;;;;22.34;100.00;100419.16;5549499;32;35433;-70
2022/08/25 06:36:33;;;;;;;16.23;5.37;;;;;;;22.39;100.00;100427.34;5535217;32;33009;-70
2022/08/25 06:39:36;;;;;;;13.80;4.95;;;;;;;22.51;100.00;100434.31;5549266;32;34279;-69
2022/08/25 06:42:40;;;;;;;9.80;4.93;;;;;;;22.53;100.00;100440.31;5549308;32;34162;-70
2022/08/25 06:45:42;;;;;;;13.30;5.37;;;;;;;22.60;100.00;100442.03;5548942;32;34647;-70
2022/08/25 06:48:46;;;;;;;13.90;4.93;;;;;;;22.88;100.00;100442.81;5549812;32;34324;-71
2022/08/25 06:51:49;;;;;;;11.82;4.90;;;;;;;23.12;100.00;100435.31;5535365;32;34796;-70
2022/08/25 06:54:53;;;;;;;12.63;4.22;;;;;;;23.48;100.00;100441.25;5548823;32;34834;-70
2022/08/25 06:57:56;;;;;;;18.42;3.80;;;;;;;24.40;95.08;100436.63;5548858;32;34322;-70
2022/08/25 07:01:12;;;;;;;12.15;4.37;;;;;;;25.22;89.32;100433.50;5548998;32;34245;-69
2022/08/25 07:04:21;;;;;;;10.07;3.92;;;;;;;24.95;88.36;100433.59;5535103;32;32737;-70
2022/08/25 07:07:24;;;;;;;15.25;4.15;;;;;;;25.86;82.52;100441.41;5549362;32;34794;-71
2022/08/25 07:10:44;;;;;;;11.23;3.97;;;;;;;25.48;83.22;100434.44;5548590;32;34420;-71
2022/08/25 07:13:50;;;;;;;16.05;3.90;;;;;;;26.60;79.97;100436.41;5548359;32;34387;-71
2022/08/25 07:16:52;;;;;;;7.95;3.75;;;;;;;26.57;78.21;100436.97;5535225;32;32823;-71
2022/08/25 07:19:55;;;;;;;15.90;4.03;;;;;;;26.69;76.09;100433.97;5551343;32;35383;-71
2022/08/25 07:22:59;;;;;;;12.77;3.45;;;;;;;27.28;76.15;100434.19;5551383;32;34852;-71
2022/08/25 07:26:15;;;;;;;11.02;3.70;;;;;;;27.90;69.86;100438.31;5551462;32;34537;-71
2022/08/25 07:29:38;;;;;;;11.00;3.80;;;;;;;29.05;65.97;100435.88;5537248;32;33125;-70
2022/08/25 07:32:44;;;;;;;15.55;4.00;;;;;;;29.18;65.68;100437.94;5550723;32;34582;-71
2022/08/25 07:35:47;;;;;;;11.68;3.85;;;;;;;30.13;62.75;100434.31;5536916;32;32950;-71
2022/08/25 07:38:51;;;;;;;11.60;3.67;;;;;;;28.69;66.59;100435.38;5536907;32;33830;-72
2022/08/25 07:41:57;;;;;;;8.32;3.65;;;;;;;28.78;66.41;100424.66;5551225;32;34471;-71
2022/08/25 07:44:59;;;;;;;10.32;3.20;;;;;;;29.67;62.25;100443.13;5549975;32;34187;-71
2022/08/25 07:48:10;;;;;;;13.80;3.53;;;;;;;30.53;59.38;100435.66;5536500;32;32941;-71
2022/08/25 07:51:16;;;;;;;16.70;3.67;;;;;;;31.29;55.83;100429.66;5537428;32;32650;-71
2022/08/25 07:54:19;;;;;;;9.27;3.62;;;;;;;30.82;58.33;100428.06;5550782;32;34857;-71
2022/08/25 07:57:25;;;;;;;13.20;4.43;;;;;;;30.48;57.24;100428.34;5536789;32;33474;-71
2022/08/25 08:00:29;;;;;;;9.98;3.50;;;;;;;30.32;58.83;100423.37;5550034;32;34543;-71
2022/08/25 08:03:33;;;;;;;10.40;3.25;;;;;;;31.30;55.44;100428.56;5550751;32;34254;-72
2022/08/25 08:06:52;;;;;;;14.45;3.45;;;;;;;31.95;51.91;100430.25;5538904;32;34972;-71
2022/08/25 08:09:55;;;;;;;9.70;3.65;;;;;;;33.12;49.93;100431.78;5550436;32;34211;-71
2022/08/25 08:13:18;;;;;;;12.25;3.50;;;;;;;33.56;48.07;100428.91;5536588;32;33166;-71
2022/08/25 08:16:26;;;;;;;8.40;2.95;;;;;;;32.76;50.33;100423.69;5536541;32;33288;-70
2022/08/25 08:19:28;;;;;;;8.85;3.22;;;;;;;33.07;49.34;100424.47;5550441;32;34250;-71
2022/08/25 08:22:31;;;;;;;13.18;3.45;;;;;;;33.77;47.05;100429.16;5550526;32;34240;-70
2022/08/25 08:25:34;;;;;;;12.10;3.47;;;;;;;34.43;45.06;100427.09;5523823;32;32587;-71
2022/08/25 08:28:37;;;;;;;9.00;2.80;;;;;;;34.10;45.93;100437.75;5549543;32;34930;-71
2022/08/25 08:31:39;;;;;;;14.20;3.37;;;;;;;35.44;42.80;100433.84;5550047;32;35582;-70
2022/08/25 08:34:50;;;;;;;9.02;2.83;;;;;;;34.95;43.50;100429.78;5550254;32;34291;-70
2022/08/25 08:37:53;;;;;;;9.75;2.50;;;;;;;34.71;44.09;100420.09;5536275;32;32849;-71
2022/08/25 08:44:44;;;;;;;11.00;2.78;;;;;;;34.23;43.89;100422.25;5536603;32;32599;-71
2022/08/25 08:47:51;;;;;;;14.93;3.35;;;;;;;33.39;45.93;100420.59;5550590;32;34372;-71
2022/08/25 08:51:13;;;;;;;9.45;2.65;;;;;;;33.75;45.02;100416.81;5536116;32;33465;-70
2022/08/25 08:54:22;;;;;;;8.65;2.80;;;;;;;34.96;42.67;100420.34;5536416;32;33834;-71
2022/08/25 08:57:27;;;;;;;9.05;2.90;;;;;;;35.06;41.30;100414.47;5536591;32;33624;-71
2022/08/25 09:00:35;;;;;;;6.65;2.37;;;;;;;34.53;41.89;100409.41;5550728;32;34764;-70
2022/08/25 09:03:43;;;;;;;11.45;2.12;;;;;;;36.15;38.12;100413.44;5550288;32;35359;-71
2022/08/25 09:06:49;;;;;;;9.02;2.45;;;;;;;35.00;40.31;100410.31;5550165;32;34285;-69
2022/08/25 09:09:52;;;;;;;8.80;2.72;;;;;;;34.68;41.02;100411.69;5549937;32;34457;-71
2022/08/25 09:13:10;;;;;;;7.35;2.67;;;;;;;34.72;40.65;100413.47;5536521;32;34568;-71
2022/08/25 09:16:53;;;;;;;8.95;2.78;;;;;;;35.69;38.50;100400.59;5536534;32;33622;-71
2022/08/25 09:20:16;;;;;;;10.07;2.75;;;;;;;36.83;36.07;100402.87;5549980;32;34216;-71
2022/08/25 09:23:32;;;;;;;7.62;2.50;;;;;;;35.64;38.41;100397.19;5549824;32;34911;-70
2022/08/25 09:26:48;;;;;;;9.57;2.55;;;;;;;34.88;38.76;100394.44;5536386;32;33074;-70
2022/08/25 09:30:00;;;;;;;5.53;2.05;;;;;;;36.28;37.73;100386.66;5550226;32;34879;-70
2022/08/25 09:33:07;;;;;;;8.90;2.25;;;;;;;36.76;35.36;100380.50;5535974;32;32468;-70
2022/08/25 09:36:10;;;;;;;12.48;2.55;;;;;;;36.61;35.50;100383.91;5549832;32;34539;-70
2022/08/25 09:39:13;;;;;;;9.75;2.42;;;;;;;36.51;34.90;100376.03;5548855;32;34549;-71
2022/08/25 09:42:19;;;;;;;7.60;2.40;;;;;;;37.08;34.72;100361.44;5536106;32;34309;-70
2022/08/25 09:45:40;;;;;;;6.50;2.30;;;;;;;38.71;31.98;100364.34;5537113;32;34102;-71
2022/08/25 09:48:50;;;;;;;12.85;2.17;;;;;;;39.74;29.46;100361.31;5536470;32;34083;-70
2022/08/25 09:52:27;;;;;;;10.70;2.30;;;;;;;39.95;29.05;100365.34;5536271;32;32721;-69
2022/08/25 09:55:33;;;;;;;6.15;2.20;;;;;;;35.66;35.58;100348.81;5550094;32;34784;-71
2022/08/25 09:58:37;;;;;;;9.00;2.05;;;;;;;34.64;38.47;100330.78;5536207;32;32994;-70
2022/08/25 10:02:05;;;;;;;6.95;2.53;;;;;;;33.51;39.67;100337.44;5536598;32;34104;-70
2022/08/25 10:05:19;;;;;;;13.85;2.50;;;;;;;31.34;44.48;100324.56;5549790;32;34217;-72
2022/08/25 10:08:29;;;;;;;6.00;2.20;;;;;;;31.33;44.68;100329.22;5550030;32;34165;-72
2022/08/25 10:11:32;;;;;;;6.47;2.00;;;;;;;30.88;44.64;100319.19;5549663;32;35105;-71
2022/08/25 10:14:39;;;;;;;9.07;2.50;;;;;;;30.87;46.29;100323.84;5536091;32;34333;-73
2022/08/25 10:17:46;;;;;;;8.07;2.42;;;;;;;30.19;47.49;100310.00;5549573;32;34522;-72
2022/08/25 10:21:04;;;;;;;8.40;2.35;;;;;;;29.85;48.53;100312.97;5549567;32;34877;-73
2022/08/25 10:24:11;;;;;;;9.15;2.53;;;;;;;29.62;49.31;100303.75;5549910;32;34285;-71
2022/08/25 10:27:51;;;;;;;9.77;2.55;;;;;;;29.16;50.33;100302.69;5536026;32;34830;-72
2022/08/25 10:31:25;;;;;;;9.77;2.70;;;;;;;29.40;49.13;100297.22;5549437;32;34558;-70
2022/08/25 10:34:48;;;;;;;5.85;2.45;;;;;;;29.85;48.84;100303.97;5494714;32;34406;-72
2022/08/25 10:38:28;;;;;;;7.68;3.03;;;;;;;29.92;49.18;100290.75;5549972;32;34275;-71
2022/08/25 10:41:43;;;;;;;5.37;2.45;;;;;;;29.71;50.11;100285.56;5535650;32;32992;-73
2022/08/25 10:45:41;;;;;;;5.43;2.35;;;;;;;31.60;45.07;100284.53;5549279;32;34610;-71
2022/08/25 10:49:03;;;;;;;7.97;2.05;;;;;;;34.01;38.76;100286.34;5526488;32;33343;-73
2022/08/25 10:52:56;;;;;;;9.75;2.12;;;;;;;35.48;35.63;100291.31;5550771;32;34179;-72
2022/08/25 10:56:11;;;;;;;7.32;2.00;;;;;;;37.31;32.96;100287.87;5531293;32;32750;-71
2022/08/25 10:59:40;;;;;;;10.60;2.22;;;;;;;37.05;33.34;100287.41;5525013;32;33028;-71
2022/08/25 11:02:54;;;;;;;5.72;2.33;;;;;;;39.33;29.28;100294.16;5551433;32;34816;-73
2022/08/25 11:06:16;;;;;;;4.72;2.00;;;;;;;39.49;28.16;100283.81;5537981;32;33094;-73
2022/08/25 11:09:24;;;;;;;7.50;2.10;;;;;;;40.23;28.57;100276.19;5538046;32;33458;-73
2022/08/25 11:12:37;;;;;;;8.38;2.60;;;;;;;37.89;30.25;100272.59;5551502;32;34731;-73
2022/08/25 11:15:51;;;;;;;7.57;2.15;;;;;;;37.46;31.42;100261.44;5538507;32;34161;-72
2022/08/25 11:19:30;;;;;;;7.20;2.53;;;;;;;40.66;27.46;100260.28;5537287;32;32557;-73
2022/08/25 11:22:41;;;;;;;8.63;2.30;;;;;;;41.82;25.40;100250.00;5551469;32;34209;-74
2022/08/25 11:25:51;;;;;;;5.37;2.20;;;;;;;40.71;27.36;100249.66;5538272;32;33037;-74
2022/08/25 11:29:17;;;;;;;11.50;2.37;;;;;;;38.24;30.76;100250.63;5551322;32;34261;-72
2022/08/25 11:32:23;;;;;;;6.75;2.30;;;;;;;40.30;27.62;100242.16;5551459;32;34884;-73
2022/08/25 11:35:37;;;;;;;9.90;2.87;;;;;;;41.21;27.22;100242.84;5551345;32;34907;-73
2022/08/25 11:38:50;;;;;;;7.05;2.45;;;;;;;40.59;27.29;100235.09;5551276;32;34693;-74
2022/08/25 11:42:17;;;;;;;8.77;2.50;;;;;;;41.20;26.79;100232.88;5551248;32;34978;-73
2022/08/25 11:45:29;;;;;;;5.25;1.92;;;;;;;41.25;26.79;100220.63;5537642;32;32858;-72
2022/08/25 11:48:55;;;;;;;7.90;2.37;;;;;;;41.81;25.45;100211.38;5551179;32;34110;-73
2022/08/25 11:51:58;;;;;;;10.07;2.50;;;;;;;41.95;24.91;100211.53;5536946;32;32816;-72
2022/08/25 11:55:21;;;;;;;10.23;2.47;;;;;;;45.42;21.54;100210.69;5551254;32;34311;-73
2022/08/25 11:58:46;;;;;;;11.60;3.08;;;;;;;43.24;23.53;100203.78;5551175;32;34322;-73
2022/08/25 12:01:54;;;;;;;8.85;2.45;;;;;;;42.26;25.00;100199.91;5550747;32;34629;-73
2022/08/25 12:04:57;;;;;;;8.43;2.17;;;;;;;41.86;25.70;100197.13;5537161;32;33492;-73
2022/08/25 12:11:37;;;;;;;10.45;2.12;;;;;;;42.28;24.08;100194.75;5537117;32;33545;-73
2022/08/25 12:14:45;;;;;;;6.37;2.50;;;;;;;43.70;22.78;100195.59;5537227;32;32860;-74
2022/08/25 12:18:15;;;;;;;6.85;2.62;;;;;;;44.30;22.98;100187.28;5550871;32;34806;-74
2022/08/25 12:21:31;;;;;;;9.25;2.75;;;;;;;46.64;20.74;100192.63;5550976;32;34125;-74
2022/08/25 12:24:43;;;;;;;13.20;2.62;;;;;;;45.02;21.42;100191.62;5537382;32;34902;-75
2022/08/25 12:27:58;;;;;;;4.03;1.83;;;;;;;45.27;20.61;100192.31;5550814;32;35668;-76
2022/08/25 12:31:16;;;;;;;9.65;2.62;;;;;;;44.46;21.23;100189.69;5550817;32;34227;-74
2022/08/25 12:34:19;;;;;;;;;;;;;;;47.68;18.61;100189.41;5537538;32;33173;-73
2022/08/25 12:37:28;;;;;;;8.27;2.20;;;;;;;44.62;21.00;100175.28;5550923;32;34541;-75
2022/08/25 12:40:35;;;;;;;8.57;1.90;;;;;;;43.84;22.68;100178.03;5550257;32;33629;-74
2022/08/25 12:43:42;;;;;;;5.43;2.40;;;;;;;42.61;23.88;100168.69;5550848;32;34720;-74
2022/08/25 12:46:46;;;;;;;10.75;2.67;;;;;;;42.85;23.44;100168.06;5550993;32;34207;-75
2022/08/25 12:49:50;;;;;;;7.03;2.45;;;;;;;41.58;24.53;100164.19;5536895;32;33439;-76
2022/08/25 12:53:07;;;;;;;7.75;2.05;;;;;;;43.97;22.10;100162.50;5536815;32;34291;-76
2022/08/25 12:56:31;;;;;;;10.75;2.30;;;;;;;45.01;21.39;100159.19;5536730;32;33014;-75
2022/08/25 12:59:42;;;;;;;5.68;2.20;;;;;;;47.84;18.42;100159.41;5536371;32;34459;-75
2022/08/25 13:03:32;;;;;;;10.05;3.00;;;;;;;45.46;20.60;100151.03;5550370;32;34773;-75
2022/08/25 13:06:54;;;;;;;14.25;2.65;;;;;;;44.62;21.35;100148.09;5549941;32;34231;-73
2022/08/25 13:10:33;;;;;;;7.50;2.33;;;;;;;46.18;18.86;100145.34;5549679;32;34819;-73
2022/08/25 13:13:45;;;;;;;5.53;2.42;;;;;;;45.09;20.33;100144.00;5549901;32;35432;-74
2022/08/25 13:16:57;;;;;;;14.00;2.70;;;;;;;43.04;21.90;100133.47;5536218;32;34807;-72
2022/08/25 13:20:14;;;;;;;11.57;2.50;;;;;;;43.99;21.02;100135.75;5536116;32;32974;-74
2022/08/25 13:23:23;;;;;;;12.02;2.42;;;;;;;45.50;20.18;100138.59;5550262;32;34098;-75
2022/08/25 13:26:38;;;;;;;7.72;2.20;;;;;;;43.65;21.75;100135.31;5550024;32;34131;-74
2022/08/25 13:29:56;;;;;;;11.95;2.55;;;;;;;44.29;21.21;100132.59;5525015;32;33019;-74
2022/08/25 13:33:20;;;;;;;9.30;2.67;;;;;;;44.80;20.85;100129.28;5535543;32;34058;-74
2022/08/25 13:40:10;;;;;;;12.55;2.20;;;;;;;43.35;21.76;100120.84;5550249;32;34904;-73
2022/08/25 13:43:16;;;;;;;13.60;2.25;;;;;;;46.75;19.29;100129.94;5550033;32;34335;-74
2022/08/25 13:46:30;;;;;;;6.65;2.40;;;;;;;47.41;17.93;100119.88;5535928;32;32968;-74
2022/08/25 13:49:38;;;;;;;8.20;2.17;;;;;;;43.45;21.89;100116.47;5549650;32;34986;-74
2022/08/25 13:53:03;;;;;;;8.80;2.85;;;;;;;45.11;20.47;100107.97;5549166;32;34341;-74
2022/08/25 13:56:22;;;;;;;7.82;2.72;;;;;;;47.61;17.72;100119.19;5534814;32;34341;-74
2022/08/25 13:59:36;;;;;;;11.38;2.42;;;;;;;41.68;24.12;100107.78;5549451;32;34347;-73
2022/08/25 14:02:44;;;;;;;16.77;2.78;;;;;;;42.90;22.69;100102.69;5536449;32;34919;-73
2022/08/25 14:06:07;;;;;;;10.60;2.17;;;;;;;42.80;22.90;100101.47;5535500;32;33174;-72
2022/08/25 14:09:17;;;;;;;8.68;2.70;;;;;;;43.04;22.92;100097.16;5536094;32;34186;-73
2022/08/25 14:12:40;;;;;;;10.27;2.40;;;;;;;42.81;23.01;100091.91;5536406;32;34440;-74
2022/08/25 14:15:46;;;;;;;10.45;2.40;;;;;;;38.60;28.76;100094.31;5535330;32;33222;-73
2022/08/25 14:18:53;;;;;;;8.93;2.37;;;;;;;36.31;32.37;100081.28;5548775;32;33770;-73
2022/08/25 14:22:01;;;;;;;11.85;2.60;;;;;;;36.59;31.82;100082.97;5548778;32;34468;-72
2022/08/25 14:25:06;;;;;;;5.70;2.22;;;;;;;36.67;32.12;100083.19;5534992;32;33094;-73
2022/08/25 14:28:14;;;;;;;14.65;2.90;;;;;;;34.79;35.61;100072.00;5535240;32;33291;-73
2022/08/25 14:31:29;;;;;;;6.18;2.30;;;;;;;35.62;34.56;100071.88;5535352;32;34935;-72
2022/08/25 14:34:35;;;;;;;13.73;2.67;;;;;;;36.06;33.31;100073.00;5548916;32;34866;-72
2022/08/25 14:37:38;;;;;;;9.30;2.25;;;;;;;34.57;35.84;100077.03;5534388;32;32928;-69
2022/08/25 14:40:42;;;;;;;6.40;2.40;;;;;;;33.10;39.45;100071.19;5548669;32;34637;-70
2022/08/25 14:43:46;;;;;;;11.70;3.10;;;;;;;32.50;40.89;100054.63;5549024;32;34545;-73